sensor_id;sensor_type;location;lat;lon;timestamp;temperature;humidity
29413;DHT22;16389;50.126;8.450;2024-02-14T00:00:32;5.90;99.90
29413;DHT22;16389;50.126;8.450;2024-02-14T00:02:58;6.00;99.90
29413;DHT22;16389;50.126;8.450;2024-02-14T00:05:23;6.00;99.90
29413;DHT22;16389;50.126;8.450;2024-02-14T00:07:49;6.00;99.90
29413;DHT22;16389;50.126;8.450;2024-02-14T00:10:14;6.00;99.90
29413;DHT22;16389;50.126;8.450;2024-02-14T00:12:40;6.00;99.90
29413;DHT22;16389;50.126;8.450;2024-02-14T00:15:06;6.00;99.90
29413;DHT22;16389;50.126;8.450;2024-02-14T00:17:33;6.00;99.90
29413;DHT22;16389;50.126;8.450;2024-02-14T00:20:00;6.10;99.90
29413;DHT22;16389;50.126;8.450;2024-02-14T00:22:26;6.00;99.90
29413;DHT22;16389;50.126;8.450;2024-02-14T00:24:52;6.10;99.90
29413;DHT22;16389;50.126;8.450;2024-02-14T00:27:17;6.10;99.90
29413;DHT22;16389;50.126;8.450;2024-02-14T00:29:43;6.10;99.90
29413;DHT22;16389;50.126;8.450;2024-02-14T00:32:13;6.10;99.90
29413;DHT22;16389;50.126;8.450;2024-02-14T00:34:39;6.10;99.90
29413;DHT22;16389;50.126;8.450;2024-02-14T00:37:04;6.10;99.90
29413;DHT22;16389;50.126;8.450;2024-02-14T00:39:30;6.20;99.90
29413;DHT22;16389;50.126;8.450;2024-02-14T00:41:55;6.20;99.90
29413;DHT22;16389;50.126;8.450;2024-02-14T00:44:22;6.20;99.90
29413;DHT22;16389;50.126;8.450;2024-02-14T00:46:47;6.20;99.90
29413;DHT22;16389;50.126;8.450;2024-02-14T00:49:16;6.20;99.90
29413;DHT22;16389;50.126;8.450;2024-02-14T00:51:41;6.20;99.90
29413;DHT22;16389;50.126;8.450;2024-02-14T00:54:07;6.20;99.90
29413;DHT22;16389;50.126;8.450;2024-02-14T00:56:33;6.20;99.90
29413;DHT22;16389;50.126;8.450;2024-02-14T00:58:59;6.20;99.90
29413;DHT22;16389;50.126;8.450;2024-02-14T01:01:25;6.20;99.90
29413;DHT22;16389;50.126;8.450;2024-02-14T01:03:51;6.20;99.90
29413;DHT22;16389;50.126;8.450;2024-02-14T01:06:16;6.20;99.90
29413;DHT22;16389;50.126;8.450;2024-02-14T01:08:43;6.20;99.90
29413;DHT22;16389;50.126;8.450;2024-02-14T01:11:09;6.20;99.90
29413;DHT22;16389;50.126;8.450;2024-02-14T01:13:35;6.20;99.90
29413;DHT22;16389;50.126;8.450;2024-02-14T01:16:00;6.20;99.90
29413;DHT22;16389;50.126;8.450;2024-02-14T01:18:26;6.20;99.90
29413;DHT22;16389;50.126;8.450;2024-02-14T01:20:51;6.10;99.90
29413;DHT22;16389;50.126;8.450;2024-02-14T01:23:17;6.10;99.90
29413;DHT22;16389;50.126;8.450;2024-02-14T01:25:42;6.00;99.90
29413;DHT22;16389;50.126;8.450;2024-02-14T01:28:09;6.00;99.90
29413;DHT22;16389;50.126;8.450;2024-02-14T01:30:34;5.90;99.90
29413;DHT22;16389;50.126;8.450;2024-02-14T01:33:02;5.90;99.90
29413;DHT22;16389;50.126;8.450;2024-02-14T01:35:29;5.80;99.90
29413;DHT22;16389;50.126;8.450;2024-02-14T01:37:58;5.80;99.90
29413;DHT22;16389;50.126;8.450;2024-02-14T01:40:23;5.80;99.90
29413;DHT22;16389;50.126;8.450;2024-02-14T01:42:49;5.80;99.90
29413;DHT22;16389;50.126;8.450;2024-02-14T01:45:15;5.80;99.90
29413;DHT22;16389;50.126;8.450;2024-02-14T01:47:41;5.70;99.90
29413;DHT22;16389;50.126;8.450;2024-02-14T01:50:08;5.80;99.90
29413;DHT22;16389;50.126;8.450;2024-02-14T01:52:39;5.80;99.90
29413;DHT22;16389;50.126;8.450;2024-02-14T01:55:06;5.80;99.90
29413;DHT22;16389;50.126;8.450;2024-02-14T01:57:33;5.80;99.90
29413;DHT22;16389;50.126;8.450;2024-02-14T02:00:01;5.70;99.90
29413;DHT22;16389;50.126;8.450;2024-02-14T02:02:34;5.70;99.90
29413;DHT22;16389;50.126;8.450;2024-02-14T02:05:02;5.70;99.90
29413;DHT22;16389;50.126;8.450;2024-02-14T02:07:27;5.70;99.90
29413;DHT22;16389;50.126;8.450;2024-02-14T02:09:53;5.60;99.90
29413;DHT22;16389;50.126;8.450;2024-02-14T02:12:19;5.60;99.90
29413;DHT22;16389;50.126;8.450;2024-02-14T02:14:44;5.70;99.90
29413;DHT22;16389;50.126;8.450;2024-02-14T02:17:10;5.70;99.90
29413;DHT22;16389;50.126;8.450;2024-02-14T02:19:36;5.70;99.90
29413;DHT22;16389;50.126;8.450;2024-02-14T02:22:02;5.70;99.90
29413;DHT22;16389;50.126;8.450;2024-02-14T02:24:30;5.70;99.90
29413;DHT22;16389;50.126;8.450;2024-02-14T02:26:56;5.70;99.90
29413;DHT22;16389;50.126;8.450;2024-02-14T02:29:22;5.70;99.90
29413;DHT22;16389;50.126;8.450;2024-02-14T02:31:47;5.60;99.90
29413;DHT22;16389;50.126;8.450;2024-02-14T02:34:13;5.70;99.90
29413;DHT22;16389;50.126;8.450;2024-02-14T02:36:40;5.70;99.90
29413;DHT22;16389;50.126;8.450;2024-02-14T02:39:06;5.80;99.90
29413;DHT22;16389;50.126;8.450;2024-02-14T02:41:31;5.70;99.90
29413;DHT22;16389;50.126;8.450;2024-02-14T02:43:57;5.80;99.90
29413;DHT22;16389;50.126;8.450;2024-02-14T02:46:23;5.80;99.90
29413;DHT22;16389;50.126;8.450;2024-02-14T02:48:48;5.80;99.90
29413;DHT22;16389;50.126;8.450;2024-02-14T02:51:16;5.80;99.90
29413;DHT22;16389;50.126;8.450;2024-02-14T02:53:43;5.90;99.90
29413;DHT22;16389;50.126;8.450;2024-02-14T02:56:08;5.90;99.90
29413;DHT22;16389;50.126;8.450;2024-02-14T02:58:34;6.00;99.90
29413;DHT22;16389;50.126;8.450;2024-02-14T03:01:00;6.10;99.90
29413;DHT22;16389;50.126;8.450;2024-02-14T03:03:27;6.10;99.90
29413;DHT22;16389;50.126;8.450;2024-02-14T03:05:53;6.20;99.90
29413;DHT22;16389;50.126;8.450;2024-02-14T03:08:20;6.20;99.90
29413;DHT22;16389;50.126;8.450;2024-02-14T03:10:47;6.20;99.90
29413;DHT22;16389;50.126;8.450;2024-02-14T03:13:12;6.30;99.90
29413;DHT22;16389;50.126;8.450;2024-02-14T03:15:38;6.30;99.90
29413;DHT22;16389;50.126;8.450;2024-02-14T03:18:04;6.40;99.90
29413;DHT22;16389;50.126;8.450;2024-02-14T03:20:35;6.40;99.90
29413;DHT22;16389;50.126;8.450;2024-02-14T03:23:01;6.40;99.90
29413;DHT22;16389;50.126;8.450;2024-02-14T03:25:29;6.40;99.90
29413;DHT22;16389;50.126;8.450;2024-02-14T03:27:54;6.40;99.90
29413;DHT22;16389;50.126;8.450;2024-02-14T03:30:22;6.40;99.90
29413;DHT22;16389;50.126;8.450;2024-02-14T03:32:49;6.40;99.90
29413;DHT22;16389;50.126;8.450;2024-02-14T03:35:14;6.50;99.90
29413;DHT22;16389;50.126;8.450;2024-02-14T03:37:41;6.50;99.90
29413;DHT22;16389;50.126;8.450;2024-02-14T03:40:08;6.50;99.90
29413;DHT22;16389;50.126;8.450;2024-02-14T03:42:36;6.50;99.90
29413;DHT22;16389;50.126;8.450;2024-02-14T03:45:06;6.60;99.90
29413;DHT22;16389;50.126;8.450;2024-02-14T03:47:34;6.60;99.90
29413;DHT22;16389;50.126;8.450;2024-02-14T03:50:00;6.60;99.90
29413;DHT22;16389;50.126;8.450;2024-02-14T03:52:27;6.60;99.90
29413;DHT22;16389;50.126;8.450;2024-02-14T03:54:53;6.60;99.90
29413;DHT22;16389;50.126;8.450;2024-02-14T03:57:19;6.60;99.90
29413;DHT22;16389;50.126;8.450;2024-02-14T03:59:46;6.70;99.90
29413;DHT22;16389;50.126;8.450;2024-02-14T04:02:11;6.70;99.90
29413;DHT22;16389;50.126;8.450;2024-02-14T04:04:37;6.70;99.90
29413;DHT22;16389;50.126;8.450;2024-02-14T04:07:04;6.70;99.90
29413;DHT22;16389;50.126;8.450;2024-02-14T04:09:32;6.70;99.90
29413;DHT22;16389;50.126;8.450;2024-02-14T04:11:58;6.80;99.90
29413;DHT22;16389;50.126;8.450;2024-02-14T04:14:23;6.80;99.90
29413;DHT22;16389;50.126;8.450;2024-02-14T04:16:49;6.70;99.90
29413;DHT22;16389;50.126;8.450;2024-02-14T04:19:15;6.70;99.90
29413;DHT22;16389;50.126;8.450;2024-02-14T04:21:43;6.70;99.90
29413;DHT22;16389;50.126;8.450;2024-02-14T04:24:08;6.70;99.90
29413;DHT22;16389;50.126;8.450;2024-02-14T04:26:34;6.60;99.90
29413;DHT22;16389;50.126;8.450;2024-02-14T04:29:00;6.60;99.90
29413;DHT22;16389;50.126;8.450;2024-02-14T04:31:25;6.60;99.90
29413;DHT22;16389;50.126;8.450;2024-02-14T04:36:19;6.60;99.90
29413;DHT22;16389;50.126;8.450;2024-02-14T04:38:46;6.60;99.90
29413;DHT22;16389;50.126;8.450;2024-02-14T04:41:12;6.60;99.90
29413;DHT22;16389;50.126;8.450;2024-02-14T04:43:38;6.60;99.90
29413;DHT22;16389;50.126;8.450;2024-02-14T04:46:04;6.60;99.90
29413;DHT22;16389;50.126;8.450;2024-02-14T04:48:32;6.50;99.90
29413;DHT22;16389;50.126;8.450;2024-02-14T04:50:58;6.50;99.90
29413;DHT22;16389;50.126;8.450;2024-02-14T04:53:23;6.50;99.90
29413;DHT22;16389;50.126;8.450;2024-02-14T04:55:50;6.50;99.90
29413;DHT22;16389;50.126;8.450;2024-02-14T04:58:15;6.40;99.90
29413;DHT22;16389;50.126;8.450;2024-02-14T05:00:42;6.40;99.90
29413;DHT22;16389;50.126;8.450;2024-02-14T05:03:07;6.40;99.90
29413;DHT22;16389;50.126;8.450;2024-02-14T05:05:33;6.40;99.90
29413;DHT22;16389;50.126;8.450;2024-02-14T05:08:01;6.40;99.90
29413;DHT22;16389;50.126;8.450;2024-02-14T05:10:28;6.40;99.90
29413;DHT22;16389;50.126;8.450;2024-02-14T05:12:54;6.40;99.90
29413;DHT22;16389;50.126;8.450;2024-02-14T05:17:45;6.40;99.90
29413;DHT22;16389;50.126;8.450;2024-02-14T05:22:38;6.40;99.90
29413;DHT22;16389;50.126;8.450;2024-02-14T05:49:28;6.20;99.90
29413;DHT22;16389;50.126;8.450;2024-02-14T05:51:54;6.20;99.90
29413;DHT22;16389;50.126;8.450;2024-02-14T05:54:19;6.20;99.90
29413;DHT22;16389;50.126;8.450;2024-02-14T05:56:46;6.20;99.90
29413;DHT22;16389;50.126;8.450;2024-02-14T05:59:11;6.20;99.90
29413;DHT22;16389;50.126;8.450;2024-02-14T06:01:37;6.20;99.90
29413;DHT22;16389;50.126;8.450;2024-02-14T06:04:02;6.20;99.90
29413;DHT22;16389;50.126;8.450;2024-02-14T06:06:28;6.30;99.90
29413;DHT22;16389;50.126;8.450;2024-02-14T06:08:54;6.20;99.90
29413;DHT22;16389;50.126;8.450;2024-02-14T06:11:20;6.30;99.90
29413;DHT22;16389;50.126;8.450;2024-02-14T06:13:47;6.30;99.90
29413;DHT22;16389;50.126;8.450;2024-02-14T06:16:13;6.40;99.90
29413;DHT22;16389;50.126;8.450;2024-02-14T06:18:39;6.40;99.90
29413;DHT22;16389;50.126;8.450;2024-02-14T06:21:06;6.40;99.90
29413;DHT22;16389;50.126;8.450;2024-02-14T06:23:31;6.40;99.90
29413;DHT22;16389;50.126;8.450;2024-02-14T06:25:58;6.40;99.90
29413;DHT22;16389;50.126;8.450;2024-02-14T06:28:23;6.40;99.90
29413;DHT22;16389;50.126;8.450;2024-02-14T06:30:49;6.40;99.90
29413;DHT22;16389;50.126;8.450;2024-02-14T06:33:15;6.40;99.90
29413;DHT22;16389;50.126;8.450;2024-02-14T06:35:40;6.40;99.90
29413;DHT22;16389;50.126;8.450;2024-02-14T06:38:06;6.50;99.90
29413;DHT22;16389;50.126;8.450;2024-02-14T06:40:32;6.50;99.90
29413;DHT22;16389;50.126;8.450;2024-02-14T06:42:58;6.50;99.90
29413;DHT22;16389;50.126;8.450;2024-02-14T06:45:25;6.50;99.90
29413;DHT22;16389;50.126;8.450;2024-02-14T06:47:51;6.60;99.90
29413;DHT22;16389;50.126;8.450;2024-02-14T06:50:17;6.60;99.90
29413;DHT22;16389;50.126;8.450;2024-02-14T06:52:42;6.60;99.90
29413;DHT22;16389;50.126;8.450;2024-02-14T06:55:08;6.60;99.90
29413;DHT22;16389;50.126;8.450;2024-02-14T06:57:33;6.70;99.90
29413;DHT22;16389;50.126;8.450;2024-02-14T06:59:59;6.70;99.90
29413;DHT22;16389;50.126;8.450;2024-02-14T07:02:24;6.70;99.90
29413;DHT22;16389;50.126;8.450;2024-02-14T07:04:53;6.80;99.90
29413;DHT22;16389;50.126;8.450;2024-02-14T07:07:19;6.80;99.90
29413;DHT22;16389;50.126;8.450;2024-02-14T07:09:45;6.90;99.90
29413;DHT22;16389;50.126;8.450;2024-02-14T07:12:10;6.90;99.90
29413;DHT22;16389;50.126;8.450;2024-02-14T07:14:36;7.00;99.90
29413;DHT22;16389;50.126;8.450;2024-02-14T07:17:01;7.00;99.90
29413;DHT22;16389;50.126;8.450;2024-02-14T07:19:27;7.00;99.90
29413;DHT22;16389;50.126;8.450;2024-02-14T07:21:53;7.10;99.90
29413;DHT22;16389;50.126;8.450;2024-02-14T07:24:18;7.10;99.90
29413;DHT22;16389;50.126;8.450;2024-02-14T07:26:44;7.20;99.90
29413;DHT22;16389;50.126;8.450;2024-02-14T07:29:10;7.30;99.90
29413;DHT22;16389;50.126;8.450;2024-02-14T07:31:35;7.30;99.90
29413;DHT22;16389;50.126;8.450;2024-02-14T07:34:01;7.30;99.90
29413;DHT22;16389;50.126;8.450;2024-02-14T07:36:31;7.40;99.90
29413;DHT22;16389;50.126;8.450;2024-02-14T07:38:57;7.40;99.90
29413;DHT22;16389;50.126;8.450;2024-02-14T07:41:23;7.50;99.90
29413;DHT22;16389;50.126;8.450;2024-02-14T07:43:48;7.50;99.90
29413;DHT22;16389;50.126;8.450;2024-02-14T07:46:20;7.40;99.90
29413;DHT22;16389;50.126;8.450;2024-02-14T07:48:48;7.40;99.90
29413;DHT22;16389;50.126;8.450;2024-02-14T07:51:14;7.40;99.90
29413;DHT22;16389;50.126;8.450;2024-02-14T07:53:39;7.40;99.90
29413;DHT22;16389;50.126;8.450;2024-02-14T07:56:05;7.40;99.90
29413;DHT22;16389;50.126;8.450;2024-02-14T07:58:31;7.50;99.90
29413;DHT22;16389;50.126;8.450;2024-02-14T08:00:56;7.50;99.90
29413;DHT22;16389;50.126;8.450;2024-02-14T08:03:21;7.50;99.90
29413;DHT22;16389;50.126;8.450;2024-02-14T08:05:47;7.50;99.90
29413;DHT22;16389;50.126;8.450;2024-02-14T08:08:13;7.60;99.90
29413;DHT22;16389;50.126;8.450;2024-02-14T08:10:38;7.70;99.90
29413;DHT22;16389;50.126;8.450;2024-02-14T08:13:04;7.70;99.90
29413;DHT22;16389;50.126;8.450;2024-02-14T08:15:29;7.80;99.90
29413;DHT22;16389;50.126;8.450;2024-02-14T08:17:56;7.80;99.90
29413;DHT22;16389;50.126;8.450;2024-02-14T08:20:22;7.90;99.90
29413;DHT22;16389;50.126;8.450;2024-02-14T08:22:49;8.00;99.90
29413;DHT22;16389;50.126;8.450;2024-02-14T08:25:15;8.00;99.90
29413;DHT22;16389;50.126;8.450;2024-02-14T08:27:41;8.10;99.90
29413;DHT22;16389;50.126;8.450;2024-02-14T08:30:07;8.20;99.90
29413;DHT22;16389;50.126;8.450;2024-02-14T08:32:34;8.30;99.90
29413;DHT22;16389;50.126;8.450;2024-02-14T08:34:59;8.30;99.90
29413;DHT22;16389;50.126;8.450;2024-02-14T08:37:26;8.50;99.90
29413;DHT22;16389;50.126;8.450;2024-02-14T08:39:52;8.50;99.90
29413;DHT22;16389;50.126;8.450;2024-02-14T08:42:17;8.60;99.90
29413;DHT22;16389;50.126;8.450;2024-02-14T08:44:43;8.60;99.90
29413;DHT22;16389;50.126;8.450;2024-02-14T08:47:08;8.60;99.90
29413;DHT22;16389;50.126;8.450;2024-02-14T08:49:34;8.60;99.90
29413;DHT22;16389;50.126;8.450;2024-02-14T08:52:00;8.60;99.90
29413;DHT22;16389;50.126;8.450;2024-02-14T08:54:25;8.70;99.90
29413;DHT22;16389;50.126;8.450;2024-02-14T08:56:53;8.70;99.90
29413;DHT22;16389;50.126;8.450;2024-02-14T08:59:21;8.70;99.90
29413;DHT22;16389;50.126;8.450;2024-02-14T09:01:47;8.70;99.90
29413;DHT22;16389;50.126;8.450;2024-02-14T09:04:13;8.60;99.90
29413;DHT22;16389;50.126;8.450;2024-02-14T09:06:39;8.60;99.90
29413;DHT22;16389;50.126;8.450;2024-02-14T09:09:06;8.50;99.90
29413;DHT22;16389;50.126;8.450;2024-02-14T09:11:32;8.60;99.90
29413;DHT22;16389;50.126;8.450;2024-02-14T09:13:57;8.70;99.90
29413;DHT22;16389;50.126;8.450;2024-02-14T09:16:30;8.70;99.90
29413;DHT22;16389;50.126;8.450;2024-02-14T09:18:56;8.70;99.90
29413;DHT22;16389;50.126;8.450;2024-02-14T09:21:21;8.70;99.90
29413;DHT22;16389;50.126;8.450;2024-02-14T09:23:47;8.80;99.90
29413;DHT22;16389;50.126;8.450;2024-02-14T09:26:13;8.90;99.90
29413;DHT22;16389;50.126;8.450;2024-02-14T09:28:42;9.00;99.90
29413;DHT22;16389;50.126;8.450;2024-02-14T09:31:07;9.10;99.90
29413;DHT22;16389;50.126;8.450;2024-02-14T09:33:35;9.20;99.90
29413;DHT22;16389;50.126;8.450;2024-02-14T09:36:02;9.10;99.90
29413;DHT22;16389;50.126;8.450;2024-02-14T09:38:27;9.20;99.90
29413;DHT22;16389;50.126;8.450;2024-02-14T09:41:00;9.20;99.90
29413;DHT22;16389;50.126;8.450;2024-02-14T09:43:37;9.20;99.90
29413;DHT22;16389;50.126;8.450;2024-02-14T09:46:04;9.30;99.90
29413;DHT22;16389;50.126;8.450;2024-02-14T09:48:30;9.30;99.90
29413;DHT22;16389;50.126;8.450;2024-02-14T09:50:56;9.30;99.90
29413;DHT22;16389;50.126;8.450;2024-02-14T09:53:23;9.30;99.90
29413;DHT22;16389;50.126;8.450;2024-02-14T09:55:49;9.30;99.90
29413;DHT22;16389;50.126;8.450;2024-02-14T09:58:16;9.30;99.90
29413;DHT22;16389;50.126;8.450;2024-02-14T10:00:41;9.30;99.90
29413;DHT22;16389;50.126;8.450;2024-02-14T10:03:07;9.30;99.90
29413;DHT22;16389;50.126;8.450;2024-02-14T10:05:33;9.40;99.90
29413;DHT22;16389;50.126;8.450;2024-02-14T10:07:59;9.40;99.90
29413;DHT22;16389;50.126;8.450;2024-02-14T10:10:26;9.50;99.90
29413;DHT22;16389;50.126;8.450;2024-02-14T10:12:54;9.70;99.90
29413;DHT22;16389;50.126;8.450;2024-02-14T10:15:20;9.70;99.90
29413;DHT22;16389;50.126;8.450;2024-02-14T10:17:46;9.70;99.90
29413;DHT22;16389;50.126;8.450;2024-02-14T10:20:17;9.70;99.90
29413;DHT22;16389;50.126;8.450;2024-02-14T10:22:43;9.80;99.90
29413;DHT22;16389;50.126;8.450;2024-02-14T10:25:10;9.80;99.90
29413;DHT22;16389;50.126;8.450;2024-02-14T10:27:39;9.90;99.90
29413;DHT22;16389;50.126;8.450;2024-02-14T10:30:08;9.90;99.90
29413;DHT22;16389;50.126;8.450;2024-02-14T10:32:37;10.00;99.90
29413;DHT22;16389;50.126;8.450;2024-02-14T10:35:05;10.00;99.90
29413;DHT22;16389;50.126;8.450;2024-02-14T10:37:35;10.10;99.90
29413;DHT22;16389;50.126;8.450;2024-02-14T10:40:02;10.10;99.90
29413;DHT22;16389;50.126;8.450;2024-02-14T10:42:29;10.30;99.90
29413;DHT22;16389;50.126;8.450;2024-02-14T10:44:54;10.40;99.90
29413;DHT22;16389;50.126;8.450;2024-02-14T10:47:25;10.50;99.90
29413;DHT22;16389;50.126;8.450;2024-02-14T10:49:50;11.00;99.90
29413;DHT22;16389;50.126;8.450;2024-02-14T10:52:18;11.50;99.90
29413;DHT22;16389;50.126;8.450;2024-02-14T10:54:55;11.40;99.90
29413;DHT22;16389;50.126;8.450;2024-02-14T10:57:24;11.60;99.90
29413;DHT22;16389;50.126;8.450;2024-02-14T10:59:49;11.90;99.90
29413;DHT22;16389;50.126;8.450;2024-02-14T11:02:16;12.00;99.90
29413;DHT22;16389;50.126;8.450;2024-02-14T11:04:43;12.00;99.90
29413;DHT22;16389;50.126;8.450;2024-02-14T11:07:10;12.00;99.90
29413;DHT22;16389;50.126;8.450;2024-02-14T11:09:39;11.90;99.90
29413;DHT22;16389;50.126;8.450;2024-02-14T11:12:12;11.60;99.90
29413;DHT22;16389;50.126;8.450;2024-02-14T11:14:37;11.50;99.90
29413;DHT22;16389;50.126;8.450;2024-02-14T11:17:10;11.20;99.90
29413;DHT22;16389;50.126;8.450;2024-02-14T11:19:35;11.00;99.90
29413;DHT22;16389;50.126;8.450;2024-02-14T11:22:18;11.00;99.90
29413;DHT22;16389;50.126;8.450;2024-02-14T11:24:47;11.10;99.90
29413;DHT22;16389;50.126;8.450;2024-02-14T11:27:13;11.30;99.90
29413;DHT22;16389;50.126;8.450;2024-02-14T11:29:40;11.30;99.90
29413;DHT22;16389;50.126;8.450;2024-02-14T11:32:11;11.30;99.90
29413;DHT22;16389;50.126;8.450;2024-02-14T11:34:37;11.30;99.90
29413;DHT22;16389;50.126;8.450;2024-02-14T11:37:02;11.50;99.90
29413;DHT22;16389;50.126;8.450;2024-02-14T11:39:30;11.70;99.90
29413;DHT22;16389;50.126;8.450;2024-02-14T11:41:58;11.60;99.90
29413;DHT22;16389;50.126;8.450;2024-02-14T11:44:24;11.60;99.90
29413;DHT22;16389;50.126;8.450;2024-02-14T11:46:51;11.30;99.90
29413;DHT22;16389;50.126;8.450;2024-02-14T11:49:17;11.20;99.90
29413;DHT22;16389;50.126;8.450;2024-02-14T11:51:43;11.10;99.90
29413;DHT22;16389;50.126;8.450;2024-02-14T11:54:09;11.00;99.90
29413;DHT22;16389;50.126;8.450;2024-02-14T11:56:38;11.00;99.90
29413;DHT22;16389;50.126;8.450;2024-02-14T11:59:05;10.90;99.90
29413;DHT22;16389;50.126;8.450;2024-02-14T12:01:38;10.70;99.90
29413;DHT22;16389;50.126;8.450;2024-02-14T12:04:05;10.60;99.90
29413;DHT22;16389;50.126;8.450;2024-02-14T12:06:34;10.50;99.90
29413;DHT22;16389;50.126;8.450;2024-02-14T12:09:01;10.40;99.90
29413;DHT22;16389;50.126;8.450;2024-02-14T12:11:31;10.40;99.90
29413;DHT22;16389;50.126;8.450;2024-02-14T12:14:01;10.40;99.90
29413;DHT22;16389;50.126;8.450;2024-02-14T12:16:27;10.30;99.90
29413;DHT22;16389;50.126;8.450;2024-02-14T12:19:04;10.30;99.90
29413;DHT22;16389;50.126;8.450;2024-02-14T12:21:34;10.30;99.90
29413;DHT22;16389;50.126;8.450;2024-02-14T12:24:00;10.30;99.90
29413;DHT22;16389;50.126;8.450;2024-02-14T12:26:26;10.20;99.90
29413;DHT22;16389;50.126;8.450;2024-02-14T12:28:52;10.30;99.90
29413;DHT22;16389;50.126;8.450;2024-02-14T12:31:25;10.30;99.90
29413;DHT22;16389;50.126;8.450;2024-02-14T12:33:50;10.30;99.90
29413;DHT22;16389;50.126;8.450;2024-02-14T12:36:19;10.40;99.90
29413;DHT22;16389;50.126;8.450;2024-02-14T12:38:45;10.40;99.90
29413;DHT22;16389;50.126;8.450;2024-02-14T12:41:11;10.40;99.90
29413;DHT22;16389;50.126;8.450;2024-02-14T12:43:36;10.40;99.90
29413;DHT22;16389;50.126;8.450;2024-02-14T12:46:01;10.40;99.90
29413;DHT22;16389;50.126;8.450;2024-02-14T12:48:29;10.50;99.90
29413;DHT22;16389;50.126;8.450;2024-02-14T12:50:55;10.60;99.90
29413;DHT22;16389;50.126;8.450;2024-02-14T12:53:22;10.60;99.90
29413;DHT22;16389;50.126;8.450;2024-02-14T12:55:48;10.70;99.90
29413;DHT22;16389;50.126;8.450;2024-02-14T12:58:14;10.80;99.90
29413;DHT22;16389;50.126;8.450;2024-02-14T13:00:40;10.80;99.90
29413;DHT22;16389;50.126;8.450;2024-02-14T13:03:05;10.90;99.90
29413;DHT22;16389;50.126;8.450;2024-02-14T13:05:31;11.00;99.90
29413;DHT22;16389;50.126;8.450;2024-02-14T13:07:56;11.10;99.90
29413;DHT22;16389;50.126;8.450;2024-02-14T13:10:22;11.20;99.90
29413;DHT22;16389;50.126;8.450;2024-02-14T13:12:48;11.20;99.90
29413;DHT22;16389;50.126;8.450;2024-02-14T13:15:15;11.20;99.90
29413;DHT22;16389;50.126;8.450;2024-02-14T13:17:41;11.10;99.90
29413;DHT22;16389;50.126;8.450;2024-02-14T13:20:07;11.10;99.90
29413;DHT22;16389;50.126;8.450;2024-02-14T13:22:33;11.00;99.90
29413;DHT22;16389;50.126;8.450;2024-02-14T13:24:59;10.90;99.90
29413;DHT22;16389;50.126;8.450;2024-02-14T13:27:26;10.90;99.90
29413;DHT22;16389;50.126;8.450;2024-02-14T13:29:51;10.90;99.90
29413;DHT22;16389;50.126;8.450;2024-02-14T13:32:17;10.90;99.90
29413;DHT22;16389;50.126;8.450;2024-02-14T13:34:42;10.90;99.90
29413;DHT22;16389;50.126;8.450;2024-02-14T13:37:09;10.90;99.90
29413;DHT22;16389;50.126;8.450;2024-02-14T13:39:35;11.00;99.90
29413;DHT22;16389;50.126;8.450;2024-02-14T13:42:00;11.00;99.90
29413;DHT22;16389;50.126;8.450;2024-02-14T13:44:26;11.10;99.90
29413;DHT22;16389;50.126;8.450;2024-02-14T13:46:52;11.20;99.90
29413;DHT22;16389;50.126;8.450;2024-02-14T13:49:18;11.30;99.90
29413;DHT22;16389;50.126;8.450;2024-02-14T13:51:48;11.30;99.90
29413;DHT22;16389;50.126;8.450;2024-02-14T13:54:14;11.20;99.90
29413;DHT22;16389;50.126;8.450;2024-02-14T13:56:40;11.00;99.90
29413;DHT22;16389;50.126;8.450;2024-02-14T13:59:06;11.00;99.90
29413;DHT22;16389;50.126;8.450;2024-02-14T14:01:31;11.00;99.90
29413;DHT22;16389;50.126;8.450;2024-02-14T14:03:57;11.00;99.90
29413;DHT22;16389;50.126;8.450;2024-02-14T14:06:23;10.90;99.90
29413;DHT22;16389;50.126;8.450;2024-02-14T14:08:50;10.90;99.90
29413;DHT22;16389;50.126;8.450;2024-02-14T14:11:16;10.90;99.90
29413;DHT22;16389;50.126;8.450;2024-02-14T14:13:42;10.90;99.90
29413;DHT22;16389;50.126;8.450;2024-02-14T14:16:07;10.90;99.90
29413;DHT22;16389;50.126;8.450;2024-02-14T14:18:34;10.90;99.90
29413;DHT22;16389;50.126;8.450;2024-02-14T14:21:00;10.90;99.90
29413;DHT22;16389;50.126;8.450;2024-02-14T14:23:26;10.90;99.90
29413;DHT22;16389;50.126;8.450;2024-02-14T14:25:51;10.90;99.90
29413;DHT22;16389;50.126;8.450;2024-02-14T14:28:17;10.90;99.90
29413;DHT22;16389;50.126;8.450;2024-02-14T14:30:44;10.90;99.90
29413;DHT22;16389;50.126;8.450;2024-02-14T14:33:10;10.90;99.90
29413;DHT22;16389;50.126;8.450;2024-02-14T14:35:36;10.80;99.90
29413;DHT22;16389;50.126;8.450;2024-02-14T14:38:05;10.80;99.90
29413;DHT22;16389;50.126;8.450;2024-02-14T14:40:30;10.80;99.90
29413;DHT22;16389;50.126;8.450;2024-02-14T14:42:56;10.80;99.90
29413;DHT22;16389;50.126;8.450;2024-02-14T14:45:22;10.70;99.90
29413;DHT22;16389;50.126;8.450;2024-02-14T14:47:47;10.70;99.90
29413;DHT22;16389;50.126;8.450;2024-02-14T14:50:14;10.60;99.90
29413;DHT22;16389;50.126;8.450;2024-02-14T14:52:41;10.60;99.90
29413;DHT22;16389;50.126;8.450;2024-02-14T14:55:09;10.60;99.90
29413;DHT22;16389;50.126;8.450;2024-02-14T14:57:35;10.60;99.90
29413;DHT22;16389;50.126;8.450;2024-02-14T15:00:07;10.60;99.90
29413;DHT22;16389;50.126;8.450;2024-02-14T15:02:35;10.60;99.90
29413;DHT22;16389;50.126;8.450;2024-02-14T15:05:01;10.60;99.90
29413;DHT22;16389;50.126;8.450;2024-02-14T15:07:26;10.50;99.90
29413;DHT22;16389;50.126;8.450;2024-02-14T15:09:52;10.60;99.90
29413;DHT22;16389;50.126;8.450;2024-02-14T15:12:18;10.60;99.90
29413;DHT22;16389;50.126;8.450;2024-02-14T15:14:43;10.60;99.90
29413;DHT22;16389;50.126;8.450;2024-02-14T15:17:09;10.50;99.90
29413;DHT22;16389;50.126;8.450;2024-02-14T15:19:34;10.50;99.90
29413;DHT22;16389;50.126;8.450;2024-02-14T15:22:00;10.50;99.90
29413;DHT22;16389;50.126;8.450;2024-02-14T15:24:29;10.50;99.90
29413;DHT22;16389;50.126;8.450;2024-02-14T15:26:54;10.50;99.90
29413;DHT22;16389;50.126;8.450;2024-02-14T15:29:25;10.50;99.90
29413;DHT22;16389;50.126;8.450;2024-02-14T15:32:10;10.50;99.90
29413;DHT22;16389;50.126;8.450;2024-02-14T15:34:54;10.50;99.90
29413;DHT22;16389;50.126;8.450;2024-02-14T15:37:21;10.50;99.90
29413;DHT22;16389;50.126;8.450;2024-02-14T15:39:47;10.40;99.90
29413;DHT22;16389;50.126;8.450;2024-02-14T15:42:13;10.40;99.90
29413;DHT22;16389;50.126;8.450;2024-02-14T15:44:39;10.40;99.90
29413;DHT22;16389;50.126;8.450;2024-02-14T15:47:04;10.50;99.90
29413;DHT22;16389;50.126;8.450;2024-02-14T15:49:30;10.50;99.90
29413;DHT22;16389;50.126;8.450;2024-02-14T15:51:56;10.50;99.90
29413;DHT22;16389;50.126;8.450;2024-02-14T15:54:21;10.50;99.90
29413;DHT22;16389;50.126;8.450;2024-02-14T15:56:47;10.40;99.90
29413;DHT22;16389;50.126;8.450;2024-02-14T15:59:12;10.40;99.90
29413;DHT22;16389;50.126;8.450;2024-02-14T16:01:41;10.40;99.90
29413;DHT22;16389;50.126;8.450;2024-02-14T16:04:07;10.40;99.90
29413;DHT22;16389;50.126;8.450;2024-02-14T16:06:33;10.40;99.90